Time;durP1;ratioP1;P1;durP2;ratioP2;P2;SDS_P1;SDS_P2;PMS_P1;PMS_P2;Temp;Humidity;BMP_temperature;BMP_pressure;BME280_temperature;BME280_humidity;BME280_pressure;Samples;Min_cycle;Max_cycle;Signal;HPM_P1;HPM_P2
2022/01/16 00:00:28;;;;;;;;;;;;;;;23.15;38.79;102117.66;7284475;19;152629;-51
2022/01/16 00:05:29;;;;;;;;;;;;;;;23.13;38.69;102114.28;7284751;19;153032;-51
2022/01/16 00:07:56;;;;;;;;;;;;;;;23.13;38.72;102113.44;7284388;19;154107;-51
2022/01/16 00:10:27;;;;;;;;;;;;;;;23.12;38.92;102115.44;7284888;19;152048;-51
2022/01/16 00:12:58;;;;;;;;;;;;;;;23.12;38.93;102120.22;7285033;19;152795;-51
2022/01/16 00:15:25;;;;;;;;;;;;;;;23.09;38.60;102129.25;7293152;19;153655;-51
2022/01/16 00:18:07;;;;;;;;;;;;;;;23.08;38.45;102125.59;7285747;19;153361;-51
2022/01/16 00:20:36;;;;;;;;;;;;;;;23.07;38.57;102109.84;7284761;19;153925;-51
2022/01/16 00:23:09;;;;;;;;;;;;;;;23.04;38.74;102104.78;7285206;19;151921;-51
2022/01/16 00:25:36;;;;;;;;;;;;;;;23.01;38.61;102120.31;7285623;19;153776;-51
2022/01/16 00:28:08;;;;;;;;;;;;;;;22.99;38.93;102116.09;7283978;19;153914;-51
2022/01/16 00:30:36;;;;;;;;;;;;;;;22.97;38.63;102115.56;7286543;19;151588;-51
2022/01/16 00:33:03;;;;;;;;;;;;;;;22.95;38.64;102112.19;7285352;19;152886;-51
2022/01/16 00:35:30;;;;;;;;;;;;;;;22.93;38.92;102117.31;7291182;19;152841;-51
2022/01/16 00:37:57;;;;;;;;;;;;;;;22.90;39.14;102117.88;7285871;19;152680;-51
2022/01/16 00:40:23;;;;;;;;;;;;;;;22.87;39.17;102130.59;7283724;19;153987;-56
2022/01/16 00:42:50;;;;;;;;;;;;;;;22.83;39.23;102148.41;7285233;19;151776;-51
2022/01/16 00:45:17;;;;;;;;;;;;;;;22.80;39.34;102149.84;7285476;19;152679;-52
2022/01/16 00:47:43;;;;;;;;;;;;;;;22.77;39.33;102143.94;7283466;19;153864;-51
2022/01/16 00:50:10;;;;;;;;;;;;;;;22.75;39.56;102147.06;7285328;19;151587;-51
2022/01/16 00:52:37;;;;;;;;;;;;;;;22.72;39.27;102143.97;7282609;19;152881;-51
2022/01/16 00:55:04;;;;;;;;;;;;;;;22.69;39.65;102136.94;7284348;19;153331;-51
2022/01/16 00:57:31;;;;;;;;;;;;;;;22.67;39.75;102136.38;7291855;19;152014;-52
2022/01/16 01:00:00;;;;;;;;;;;;;;;22.62;39.98;102111.09;7283870;19;153324;-51
2022/01/16 01:02:27;;;;;;;;;;;;;;;22.61;39.98;102118.69;7283998;19;152360;-51
2022/01/16 01:04:54;;;;;;;;;;;;;;;22.57;39.66;102137.31;7285539;19;152934;-52
2022/01/16 01:07:20;;;;;;;;;;;;;;;22.56;39.86;102117.88;7283458;19;153585;-51
2022/01/16 01:09:47;;;;;;;;;;;;;;;22.52;39.96;102117.63;7283315;19;151979;-52
2022/01/16 01:12:25;;;;;;;;;;;;;;;22.52;39.86;102125.25;7283037;19;153033;-51
2022/01/16 01:15:09;;;;;;;;;;;;;;;22.48;40.38;102119.34;7280393;19;152637;-51
2022/01/16 01:17:44;;;;;;;;;;;;;;;22.45;40.39;102117.09;7284000;19;151877;-51
2022/01/16 01:20:14;;;;;;;;;;;;;;;22.41;40.53;102101.09;7289913;19;154720;-51
2022/01/16 01:22:41;;;;;;;;;;;;;;;22.40;40.39;102128.41;7283839;19;151899;-52
2022/01/16 01:25:11;;;;;;;;;;;;;;;22.38;40.53;102098.88;7283921;19;152723;-51
2022/01/16 01:27:38;;;;;;;;;;;;;;;22.36;40.49;102129.28;7280733;19;153838;-52
2022/01/16 01:30:09;;;;;;;;;;;;;;;22.34;40.45;102106.22;7283165;19;151536;-51
2022/01/16 01:32:37;;;;;;;;;;;;;;;22.31;40.82;102135.78;7281354;19;153991;-51
2022/01/16 01:35:05;;;;;;;;;;;;;;;22.27;40.56;102106.53;7282474;19;153597;-51
2022/01/16 01:37:32;;;;;;;;;;;;;;;22.23;40.70;102127.97;7283477;19;151860;-51
2022/01/16 01:39:59;;;;;;;;;;;;;;;22.19;41.21;102079.00;7283101;19;153662;-51
2022/01/16 01:42:35;;;;;;;;;;;;;;;22.15;41.25;102016.84;7289633;19;154194;-52
2022/01/16 01:53:22;;;;;;;;;;;;;;;21.99;40.90;102034.09;7279678;19;154089;-51
2022/01/16 01:55:53;;;;;;;;;;;;;;;21.97;41.39;102064.53;7281988;19;153521;-51
2022/01/16 01:58:20;;;;;;;;;;;;;;;21.95;41.08;102086.47;7283199;19;152752;-51
2022/01/16 02:00:47;;;;;;;;;;;;;;;21.92;40.98;102095.47;7280710;19;153861;-51
2022/01/16 02:03:26;;;;;;;;;;;;;;;21.88;41.60;102111.25;7280872;19;153926;-51
2022/01/16 02:05:53;;;;;;;;;;;;;;;21.85;41.16;102094.97;7286659;19;151485;-52
2022/01/16 02:08:19;;;;;;;;;;;;;;;21.82;41.57;102099.19;7281343;19;153987;-51
2022/01/16 02:10:46;;;;;;;;;;;;;;;21.79;41.28;102105.41;7283488;19;152473;-51
2022/01/16 02:13:28;;;;;;;;;;;;;;;21.76;41.39;102116.41;7277517;19;152689;-52
2022/01/16 02:34:41;;;;;;;;;;;;;;;21.46;41.93;102129.44;7288397;19;152635;-51
2022/01/16 02:37:11;;;;;;;;;;;;;;;21.44;42.10;102142.09;7287437;19;153619;-51
2022/01/16 02:39:41;;;;;;;;;;;;;;;21.40;42.12;102138.16;7286049;19;151752;-52
2022/01/16 02:42:09;;;;;;;;;;;;;;;21.36;42.10;102137.03;7287851;19;153316;-52
2022/01/16 02:47:11;;;;;;;;;;;;;;;21.28;42.19;102121.63;7288218;19;151972;-51
2022/01/16 02:49:40;;;;;;;;;;;;;;;21.24;42.20;102104.47;7294108;19;153273;-51
2022/01/16 02:52:09;;;;;;;;;;;;;;;21.19;42.50;102092.41;7287543;19;151708;-51
2022/01/16 02:54:38;;;;;;;;;;;;;;;21.20;42.16;102089.31;7286115;19;152135;-51
2022/01/16 02:57:16;;;;;;;;;;;;;;;21.14;42.59;102093.25;7286597;19;154238;-51
2022/01/16 03:00:05;;;;;;;;;;;;;;;21.10;42.20;102094.06;7287355;19;152574;-51
2022/01/16 03:02:35;;;;;;;;;;;;;;;21.03;42.30;102077.50;7286317;19;153226;-52
2022/01/16 03:12:50;;;;;;;;;;;;;;;20.90;42.54;102063.19;7292528;19;153324;-52
2022/01/16 03:15:22;;;;;;;;;;;;;;;20.86;42.74;102060.97;7286491;19;154073;-51
2022/01/16 03:23:20;;;;;;;;;;;;;;;20.80;43.17;102070.53;7287199;19;152564;-51
2022/01/16 03:25:48;;;;;;;;;;;;;;;20.77;43.07;102068.28;7285564;19;153235;-51
2022/01/16 03:28:15;;;;;;;;;;;;;;;20.75;42.86;102052.84;7286712;19;151914;-51
2022/01/16 03:30:42;;;;;;;;;;;;;;;20.72;43.32;102043.00;7287583;19;152711;-52
2022/01/16 03:33:09;;;;;;;;;;;;;;;20.66;43.17;102041.34;7283728;19;153216;-51
2022/01/16 03:35:36;;;;;;;;;;;;;;;20.64;43.46;102040.78;7294512;19;151863;-51
2022/01/16 03:38:04;;;;;;;;;;;;;;;20.62;43.17;102025.34;7285425;19;153212;-51
2022/01/16 03:40:35;;;;;;;;;;;;;;;20.62;43.05;102030.97;7286477;19;151966;-52
2022/01/16 03:43:14;;;;;;;;;;;;;;;20.55;43.31;102044.44;7286706;19;152679;-52
2022/01/16 03:45:42;;;;;;;;;;;;;;;20.53;43.28;102046.69;7285460;19;154130;-51
2022/01/16 03:48:09;;;;;;;;;;;;;;;20.51;43.24;102057.34;7286068;19;151778;-51
2022/01/16 03:50:36;;;;;;;;;;;;;;;20.47;43.18;102051.47;7284950;19;152603;-52
2022/01/16 03:53:03;;;;;;;;;;;;;;;20.47;43.46;102059.03;7283438;19;153765;-52
2022/01/16 03:55:31;;;;;;;;;;;;;;;20.46;43.59;102046.13;7286844;19;152237;-51
2022/01/16 03:57:58;;;;;;;;;;;;;;;20.41;43.78;102050.63;7291868;19;152497;-52
2022/01/16 04:00:25;;;;;;;;;;;;;;;20.44;43.67;102043.63;7286357;19;152568;-51
2022/01/16 04:02:52;;;;;;;;;;;;;;;20.36;43.42;102053.44;7285872;19;152705;-51
2022/01/16 04:05:19;;;;;;;;;;;;;;;20.38;43.76;102053.16;7284701;19;153384;-51
2022/01/16 04:07:45;;;;;;;;;;;;;;;20.36;43.58;102058.19;7283247;19;153737;-52
2022/01/16 04:10:12;;;;;;;;;;;;;;;20.34;43.69;102064.09;7284538;19;152727;-52
2022/01/16 04:12:40;;;;;;;;;;;;;;;20.30;44.10;102057.38;7283093;19;154003;-52
2022/01/16 04:17:40;;;;;;;;;;;;;;;20.28;43.79;102067.16;7285690;19;152993;-51
2022/01/16 04:20:07;;;;;;;;;;;;;;;20.27;44.05;102054.22;7291225;19;153796;-51
2022/01/16 04:22:34;;;;;;;;;;;;;;;20.26;44.08;102055.38;7284840;19;153463;-51
2022/01/16 04:25:00;;;;;;;;;;;;;;;20.22;44.10;102055.06;7283993;19;153840;-51
2022/01/16 04:27:27;;;;;;;;;;;;;;;20.22;44.13;102063.47;7284965;19;151914;-51
2022/01/16 04:29:54;;;;;;;;;;;;;;;20.20;44.41;102054.53;7285542;19;154381;-51
2022/01/16 04:32:21;;;;;;;;;;;;;;;20.16;44.15;102052.56;7284433;19;153288;-51
2022/01/16 04:34:47;;;;;;;;;;;;;;;20.14;44.37;102047.22;7284810;19;151762;-51
2022/01/16 04:37:15;;;;;;;;;;;;;;;20.12;44.29;102054.25;7285730;19;153116;-51
2022/01/16 04:39:49;;;;;;;;;;;;;;;20.09;44.36;102046.34;7282901;19;152272;-51
2022/01/16 04:45:02;;;;;;;;;;;;;;;20.07;44.29;102057.03;7280881;19;153874;-51
2022/01/16 04:47:29;;;;;;;;;;;;;;;20.03;44.39;102051.13;7284601;19;152469;-51
2022/01/16 04:49:56;;;;;;;;;;;;;;;20.01;44.50;102049.72;7283393;19;152673;-51
2022/01/16 04:52:23;;;;;;;;;;;;;;;20.00;44.40;102051.69;7283459;19;153298;-51
2022/01/16 04:54:49;;;;;;;;;;;;;;;20.00;44.32;102051.69;7283908;19;152036;-51
2022/01/16 04:57:17;;;;;;;;;;;;;;;19.94;44.30;102062.03;7284834;19;152899;-51
2022/01/16 04:59:43;;;;;;;;;;;;;;;19.93;44.52;102039.91;7283402;19;152995;-51
2022/01/16 05:02:10;;;;;;;;;;;;;;;19.93;44.66;102048.31;7291939;19;151623;-52
2022/01/16 05:04:37;;;;;;;;;;;;;;;19.89;44.44;102047.19;7283845;19;153219;-51
2022/01/16 05:07:04;;;;;;;;;;;;;;;19.87;44.43;102038.19;7283769;19;152371;-52
2022/01/16 05:09:31;;;;;;;;;;;;;;;19.88;44.41;102040.72;7284423;19;153719;-52
2022/01/16 05:12:01;;;;;;;;;;;;;;;19.83;44.86;102049.13;7282831;19;153096;-52
2022/01/16 05:17:13;;;;;;;;;;;;;;;19.81;44.84;102045.75;7284566;19;152918;-52
2022/01/16 05:19:40;;;;;;;;;;;;;;;19.77;44.80;102058.63;7282839;19;153972;-52
2022/01/16 05:22:07;;;;;;;;;;;;;;;19.77;44.79;102050.22;7284066;19;151790;-51
2022/01/16 05:24:35;;;;;;;;;;;;;;;19.77;44.63;102050.22;7290375;19;153554;-51
2022/01/16 05:27:02;;;;;;;;;;;;;;;19.74;44.66;102056.41;7283939;19;151736;-52
2022/01/16 05:29:29;;;;;;;;;;;;;;;19.69;44.92;102059.19;7283805;19;152569;-52
2022/01/16 05:31:55;;;;;;;;;;;;;;;19.70;45.05;102066.47;7282922;19;154351;-52
2022/01/16 05:34:25;;;;;;;;;;;;;;;19.67;45.36;102061.41;7279084;19;152147;-51
2022/01/16 05:36:53;;;;;;;;;;;;;;;19.66;45.29;102068.16;7281410;19;153775;-52
2022/01/16 05:39:19;;;;;;;;;;;;;;;19.63;45.43;102060.28;7280049;19;154128;-51
2022/01/16 05:41:46;;;;;;;;;;;;;;;19.63;45.50;102054.66;7283682;19;151968;-52
2022/01/16 05:44:13;;;;;;;;;;;;;;;19.62;45.26;102069.81;7283050;19;153342;-51
2022/01/16 05:46:40;;;;;;;;;;;;;;;19.61;45.30;102073.75;7290446;19;153265;-52
2022/01/16 05:49:07;;;;;;;;;;;;;;;19.58;45.37;102048.22;7283404;19;154034;-51
2022/01/16 05:51:34;;;;;;;;;;;;;;;19.58;45.76;102057.44;7282591;19;154319;-52
2022/01/16 05:54:01;;;;;;;;;;;;;;;19.53;45.57;102061.06;7280533;19;152023;-52
2022/01/16 05:56:28;;;;;;;;;;;;;;;19.53;45.31;102054.66;7282980;19;152367;-52
2022/01/16 05:58:54;;;;;;;;;;;;;;;19.49;45.32;102045.94;7279411;19;153593;-51
2022/01/16 06:01:21;;;;;;;;;;;;;;;19.47;45.65;102050.13;7283989;19;152346;-51
2022/01/16 06:03:48;;;;;;;;;;;;;;;19.45;45.79;102052.34;7281995;19;153511;-52
2022/01/16 06:06:15;;;;;;;;;;;;;;;19.46;45.62;102057.69;7282062;19;153392;-51
2022/01/16 06:08:43;;;;;;;;;;;;;;;19.44;45.50;102050.69;7286514;19;151680;-52
2022/01/16 06:11:09;;;;;;;;;;;;;;;19.44;45.77;102054.31;7281393;19;154003;-52
2022/01/16 06:13:36;;;;;;;;;;;;;;;19.42;45.81;102059.34;7281850;19;151807;-51
2022/01/16 06:16:03;;;;;;;;;;;;;;;19.41;45.71;102073.63;7280747;19;152491;-51
2022/01/16 06:18:31;;;;;;;;;;;;;;;19.37;45.37;102092.09;7281315;19;153978;-51
2022/01/16 06:20:57;;;;;;;;;;;;;;;19.36;45.71;102082.84;7282648;19;151811;-52
2022/01/16 06:23:26;;;;;;;;;;;;;;;19.33;45.55;102083.41;7282855;19;152717;-51
2022/01/16 06:25:54;;;;;;;;;;;;;;;19.34;45.96;102089.84;7280623;19;153625;-51
2022/01/16 06:28:22;;;;;;;;;;;;;;;19.33;45.79;102090.97;7282102;19;151685;-52
2022/01/16 06:30:49;;;;;;;;;;;;;;;19.30;45.99;102094.31;7288717;19;152940;-52
2022/01/16 06:33:18;;;;;;;;;;;;;;;19.27;45.65;102098.47;7281170;19;151783;-52
2022/01/16 06:35:51;;;;;;;;;;;;;;;19.24;46.00;102101.84;7281909;19;153209;-51
2022/01/16 06:38:17;;;;;;;;;;;;;;;19.26;45.68;102105.19;7280439;19;154032;-51
2022/01/16 06:40:44;;;;;;;;;;;;;;;19.26;46.05;102112.78;7282001;19;151964;-51
2022/01/16 06:43:11;;;;;;;;;;;;;;;19.28;46.00;102116.16;7281614;19;153707;-52
2022/01/16 06:45:38;;;;;;;;;;;;;;;19.28;45.95;102113.34;7280243;19;153255;-51
2022/01/16 06:48:04;;;;;;;;;;;;;;;19.32;46.43;102117.28;7281812;19;152082;-51
2022/01/16 06:50:31;;;;;;;;;;;;;;;19.35;46.58;102111.16;7280847;19;153908;-52
2022/01/16 06:53:13;;;;;;;;;;;;;;;19.38;46.25;102113.41;7285101;19;151859;-51
2022/01/16 06:56:17;;;;;;;;;;;;;;;19.41;46.55;102113.69;7280544;19;152148;-51
2022/01/16 06:58:53;;;;;;;;;;;;;;;19.46;46.19;102107.31;7279855;19;153597;-51
2022/01/16 07:01:56;;;;;;;;;;;;;;;19.51;46.25;102107.34;7280753;19;152052;-52
2022/01/16 07:04:27;;;;;;;;;;;;;;;19.56;46.82;102115.78;7280348;19;152937;-51
2022/01/16 07:06:57;;;;;;;;;;;;;;;19.62;46.89;102116.63;7278464;19;154108;-52
2022/01/16 07:09:29;;;;;;;;;;;;;;;19.69;46.87;102132.09;7286721;19;151942;-51
2022/01/16 07:11:59;;;;;;;;;;;;;;;19.76;47.05;102132.66;7287498;19;151560;-51
2022/01/16 07:14:53;;;;;;;;;;;;;;;19.82;47.16;102131.56;7291910;19;154061;-51
2022/01/16 07:17:38;;;;;;;;;;;;;;;19.92;47.31;102140.03;7287002;19;152206;-51
2022/01/16 07:20:14;;;;;;;;;;;;;;;19.99;46.79;102145.38;7285702;19;152307;-51
2022/01/16 07:22:46;;;;;;;;;;;;;;;20.07;47.14;102142.03;7286944;19;152574;-51
2022/01/16 07:25:16;;;;;;;;;;;;;;;20.14;46.92;102153.00;7287325;19;152250;-51
2022/01/16 07:27:43;;;;;;;;;;;;;;;20.20;46.41;102161.16;7285974;19;153639;-51
2022/01/16 07:30:10;;;;;;;;;;;;;;;20.27;46.28;102158.06;7285600;19;152286;-51
2022/01/16 07:32:42;;;;;;;;;;;;;;;20.32;46.16;102169.34;7287066;19;153992;-52
2022/01/16 07:35:33;;;;;;;;;;;;;;;20.39;46.34;102153.09;7281613;19;155374;-51
2022/01/16 07:38:07;;;;;;;;;;;;;;;20.45;46.09;102149.16;7294701;19;151527;-51
2022/01/16 07:40:38;;;;;;;;;;;;;;;20.51;45.63;102153.66;7285633;19;152214;-51
2022/01/16 07:43:13;;;;;;;;;;;;;;;20.58;45.90;102156.22;7286643;19;152290;-52
2022/01/16 07:45:50;;;;;;;;;;;;;;;20.64;45.41;102167.16;7285549;19;152744;-51
2022/01/16 07:48:17;;;;;;;;;;;;;;;20.70;45.44;102180.09;7284905;19;153217;-52
2022/01/16 07:50:44;;;;;;;;;;;;;;;20.75;45.51;102168.84;7285867;19;152419;-52
2022/01/16 07:53:10;;;;;;;;;;;;;;;20.80;45.33;102176.44;7287158;19;153483;-52
2022/01/16 07:55:37;;;;;;;;;;;;;;;20.85;44.98;102168.84;7282941;19;152707;-52
2022/01/16 07:58:04;;;;;;;;;;;;;;;20.91;44.94;102163.22;7286128;19;152113;-52
2022/01/16 08:00:31;;;;;;;;;;;;;;;20.97;45.13;102171.38;7292742;19;152832;-52
2022/01/16 08:03:09;;;;;;;;;;;;;;;21.02;44.85;102176.16;7285688;19;151744;-51
2022/01/16 08:05:54;;;;;;;;;;;;;;;21.06;44.67;102178.13;7284198;19;152574;-51
2022/01/16 08:08:25;;;;;;;;;;;;;;;21.12;45.16;102185.41;7281717;19;152257;-51
2022/01/16 08:11:09;;;;;;;;;;;;;;;21.16;44.93;102180.97;7284473;19;152235;-52
2022/01/16 08:13:39;;;;;;;;;;;;;;;21.21;44.68;102192.16;7284643;19;151639;-51
2022/01/16 08:16:12;;;;;;;;;;;;;;;21.26;44.34;102197.78;7282585;19;152367;-51
2022/01/16 08:18:38;;;;;;;;;;;;;;;21.29;44.71;102187.97;7283969;19;152104;-52
2022/01/16 08:21:05;;;;;;;;;;;;;;;21.33;44.33;102200.31;7283933;19;153134;-52
2022/01/16 08:23:32;;;;;;;;;;;;;;;21.37;44.31;102200.59;7291121;19;153833;-52
2022/01/16 08:25:59;;;;;;;;;;;;;;;21.38;44.52;102199.47;7285853;19;152419;-51
2022/01/16 08:28:26;;;;;;;;;;;;;;;21.41;44.23;102190.47;7284032;19;153648;-52
2022/01/16 08:30:53;;;;;;;;;;;;;;;21.42;43.92;102198.63;7286352;19;152133;-51
2022/01/16 08:33:25;;;;;;;;;;;;;;;21.44;44.06;102199.16;7285527;19;154665;-51
2022/01/16 08:35:52;;;;;;;;;;;;;;;21.45;43.71;102203.66;7280959;19;153736;-51
2022/01/16 08:38:19;;;;;;;;;;;;;;;21.46;43.74;102213.78;7284466;19;151759;-51
2022/01/16 08:40:45;;;;;;;;;;;;;;;21.46;43.97;102201.69;7284546;19;153130;-52
2022/01/16 08:43:17;;;;;;;;;;;;;;;21.46;43.97;102201.69;7283758;19;153641;-52
2022/01/16 08:45:51;;;;;;;;;;;;;;;21.47;43.87;102209.00;7292084;19;151794;-52
2022/01/16 08:48:20;;;;;;;;;;;;;;;21.47;43.95;102207.06;7284257;19;153983;-51
2022/01/16 08:50:47;;;;;;;;;;;;;;;21.47;43.78;102200.56;7285871;19;152295;-51
2022/01/16 08:53:33;;;;;;;;;;;;;;;21.47;43.97;102203.38;7284512;19;151692;-52
2022/01/16 08:56:10;;;;;;;;;;;;;;;21.45;43.64;102211.25;7281962;19;153070;-51
2022/01/16 08:58:45;;;;;;;;;;;;;;;21.45;43.96;102211.25;7284701;19;151866;-51
2022/01/16 09:01:15;;;;;;;;;;;;;;;21.41;43.22;102215.75;7284441;19;152392;-51
2022/01/16 09:03:42;;;;;;;;;;;;;;;21.31;43.10;102219.44;7281145;19;153421;-52
2022/01/16 09:06:13;;;;;;;;;;;;;;;21.24;42.43;102216.91;7290881;19;152452;-51
2022/01/16 09:08:44;;;;;;;;;;;;;;;21.19;42.28;102236.59;7279293;19;154474;-51
2022/01/16 09:11:11;;;;;;;;;;;;;;;21.15;42.01;102248.69;7279975;19;152365;-52
2022/01/16 09:13:40;;;;;;;;;;;;;;;21.14;42.12;102247.84;7283299;19;153155;-52
2022/01/16 09:16:08;;;;;;;;;;;;;;;21.14;42.09;102255.41;7280143;19;154356;-52
2022/01/16 09:18:35;;;;;;;;;;;;;;;21.12;42.06;102252.84;7284468;19;152467;-52
2022/01/16 09:21:02;;;;;;;;;;;;;;;21.14;41.63;102267.50;7284052;19;153268;-51
2022/01/16 09:23:30;;;;;;;;;;;;;;;21.14;41.45;102266.66;7282947;19;154257;-52
2022/01/16 09:25:57;;;;;;;;;;;;;;;21.16;41.38;102270.06;7283816;19;152715;-52
2022/01/16 09:28:23;;;;;;;;;;;;;;;21.16;41.34;102265.28;7285487;19;152639;-51
2022/01/16 09:30:50;;;;;;;;;;;;;;;21.19;41.40;102275.09;7280147;19;151868;-52
2022/01/16 09:33:19;;;;;;;;;;;;;;;21.22;41.53;102286.63;7277817;19;152698;-52
2022/01/16 09:35:51;;;;;;;;;;;;;;;21.24;41.37;102294.78;7277403;19;153680;-52
2022/01/16 09:38:18;;;;;;;;;;;;;;;21.27;41.11;102299.84;7280948;19;152009;-52
2022/01/16 09:40:46;;;;;;;;;;;;;;;21.29;41.39;102303.22;7281150;19;153349;-52
2022/01/16 09:43:14;;;;;;;;;;;;;;;21.32;41.19;102310.22;7279443;19;152193;-51
2022/01/16 09:45:53;;;;;;;;;;;;;;;21.33;40.94;102311.94;7280460;19;151905;-52
2022/01/16 09:48:22;;;;;;;;;;;;;;;21.34;40.60;102305.19;7279901;19;153624;-53
2022/01/16 09:50:52;;;;;;;;;;;;;;;21.37;40.57;102311.09;7287252;19;153713;-52
2022/01/16 09:53:27;;;;;;;;;;;;;;;21.41;40.39;102305.75;7280556;19;152839;-52
2022/01/16 09:55:57;;;;;;;;;;;;;;;21.42;40.55;102299.84;7277280;19;153922;-52
2022/01/16 09:58:25;;;;;;;;;;;;;;;21.45;40.66;102302.09;7280391;19;151938;-51
2022/01/16 10:00:52;;;;;;;;;;;;;;;21.48;40.44;102301.53;7280180;19;153082;-52
2022/01/16 10:03:43;;;;;;;;;;;;;;;21.50;40.38;102301.25;7278239;19;154143;-52
2022/01/16 10:06:12;;;;;;;;;;;;;;;21.52;40.34;102311.09;7281024;19;151704;-52
2022/01/16 10:08:43;;;;;;;;;;;;;;;21.54;40.45;102322.88;7276673;19;152072;-52
2022/01/16 10:11:23;;;;;;;;;;;;;;;21.56;40.14;102325.44;7275931;19;153326;-52
2022/01/16 10:14:09;;;;;;;;;;;;;;;21.59;39.97;102331.31;7284433;19;152639;-52
2022/01/16 10:16:37;;;;;;;;;;;;;;;21.60;40.28;102337.81;7273097;19;153536;-52
2022/01/16 10:19:23;;;;;;;;;;;;;;;21.63;40.34;102340.88;7279547;19;151880;-51
2022/01/16 10:22:06;;;;;;;;;;;;;;;21.65;40.24;102349.91;7279912;19;152349;-52
2022/01/16 10:24:35;;;;;;;;;;;;;;;21.53;39.88;102352.13;7278891;19;152895;-52
2022/01/16 10:27:08;;;;;;;;;;;;;;;21.61;39.30;102357.22;7278317;19;152046;-52
2022/01/16 10:29:39;;;;;;;;;;;;;;;21.63;39.44;102360.56;7279742;19;153204;-53
2022/01/16 10:32:12;;;;;;;;;;;;;;;21.66;39.66;102364.81;7277680;19;153451;-52
2022/01/16 10:34:41;;;;;;;;;;;;;;;21.68;39.67;102373.78;7278211;19;152255;-52
2022/01/16 10:37:21;;;;;;;;;;;;;;;21.70;39.24;102380.84;7285154;19;151740;-53
2022/01/16 10:39:51;;;;;;;;;;;;;;;21.73;39.57;102373.81;7279515;19;152251;-52
2022/01/16 10:42:18;;;;;;;;;;;;;;;21.74;39.66;102387.59;7279527;19;152804;-53
2022/01/16 10:44:56;;;;;;;;;;;;;;;21.77;39.60;102371.25;7281143;19;153842;-52
2022/01/16 10:47:30;;;;;;;;;;;;;;;21.79;39.60;102386.75;7284892;19;152693;-52
2022/01/16 10:49:59;;;;;;;;;;;;;;;21.79;39.19;102391.53;7283487;19;153483;-52
2022/01/16 10:52:26;;;;;;;;;;;;;;;21.82;39.32;102393.78;7283059;19;154217;-53
2022/01/16 10:54:53;;;;;;;;;;;;;;;21.84;39.58;102397.16;7281049;19;152254;-52
2022/01/16 10:57:25;;;;;;;;;;;;;;;21.84;39.43;102395.19;7283056;19;151668;-53
2022/01/16 11:00:01;;;;;;;;;;;;;;;21.86;39.37;102392.91;7288595;19;153189;-52
2022/01/16 11:02:29;;;;;;;;;;;;;;;21.87;39.04;102388.13;7282514;19;152743;-52
2022/01/16 11:05:04;;;;;;;;;;;;;;;21.91;39.47;102387.28;7280793;19;153203;-52
2022/01/16 11:07:31;;;;;;;;;;;;;;;21.95;39.37;102377.19;7280401;19;152021;-53
2022/01/16 11:09:58;;;;;;;;;;;;;;;21.99;39.68;102383.94;7282307;19;152744;-53
2022/01/16 11:12:25;;;;;;;;;;;;;;;22.00;39.78;102379.16;7281294;19;153899;-52
2022/01/16 11:14:55;;;;;;;;;;;;;;;21.99;39.89;102391.53;7281501;19;151994;-54
2022/01/16 11:17:22;;;;;;;;;;;;;;;21.92;39.79;102391.81;7284593;19;153576;-53
2022/01/16 11:19:48;;;;;;;;;;;;;;;21.96;39.65;102386.47;7287918;19;153204;-52
2022/01/16 11:22:22;;;;;;;;;;;;;;;21.97;39.41;102380.56;7281181;19;152890;-52
2022/01/16 11:25:01;;;;;;;;;;;;;;;21.97;39.52;102379.72;7282867;19;153973;-53
2022/01/16 11:27:37;;;;;;;;;;;;;;;21.99;39.02;102383.09;7283374;19;151908;-53
2022/01/16 11:30:05;;;;;;;;;;;;;;;22.02;39.43;102372.13;7283777;19;154086;-53
2022/01/16 11:32:33;;;;;;;;;;;;;;;22.03;39.07;102381.41;7282597;19;152187;-52
2022/01/16 11:35:00;;;;;;;;;;;;;;;22.03;39.00;102382.22;7283537;19;152492;-52
2022/01/16 11:37:27;;;;;;;;;;;;;;;22.04;39.09;102383.09;7283782;19;153837;-53
2022/01/16 11:40:21;;;;;;;;;;;;;;;22.05;38.64;102380.00;7282733;19;154084;-53
2022/01/16 11:42:58;;;;;;;;;;;;;;;22.05;38.78;102379.16;7291556;19;152528;-53
2022/01/16 11:45:25;;;;;;;;;;;;;;;22.07;38.94;102400.28;7282528;19;154004;-53
2022/01/16 11:48:01;;;;;;;;;;;;;;;22.11;38.65;102395.75;7284086;19;152131;-53
2022/01/16 11:50:37;;;;;;;;;;;;;;;22.11;38.89;102395.75;7284418;19;153326;-53
2022/01/16 11:53:03;;;;;;;;;;;;;;;22.13;38.74;102399.13;7283231;19;153310;-53
2022/01/16 11:55:32;;;;;;;;;;;;;;;22.14;38.79;102397.16;7282183;19;152471;-53
2022/01/16 11:58:00;;;;;;;;;;;;;;;22.12;38.98;102408.69;7282997;19;152367;-53
2022/01/16 12:00:43;;;;;;;;;;;;;;;22.16;38.89;102408.97;7283160;19;153557;-53
2022/01/16 12:03:20;;;;;;;;;;;;;;;22.16;38.52;102409.81;7281517;19;151709;-53
2022/01/16 12:05:50;;;;;;;;;;;;;;;22.20;38.86;102409.25;7290037;19;153565;-53
2022/01/16 12:08:20;;;;;;;;;;;;;;;22.18;38.81;102416.00;7280624;19;151609;-53
2022/01/16 12:10:50;;;;;;;;;;;;;;;22.21;38.43;102411.78;7282336;19;152650;-53
2022/01/16 12:13:27;;;;;;;;;;;;;;;22.24;38.59;102419.66;7281372;19;154351;-53
2022/01/16 12:16:13;;;;;;;;;;;;;;;22.24;38.75;102432.88;7281061;19;152060;-53
2022/01/16 12:18:40;;;;;;;;;;;;;;;22.25;38.31;102426.13;7280772;19;153454;-53
2022/01/16 12:21:17;;;;;;;;;;;;;;;22.26;38.21;102425.84;7280218;19;153250;-53
2022/01/16 12:23:47;;;;;;;;;;;;;;;22.27;38.63;102426.69;7282670;19;152372;-53
2022/01/16 12:26:28;;;;;;;;;;;;;;;22.26;38.30;102427.81;7280469;19;153596;-53
2022/01/16 12:28:58;;;;;;;;;;;;;;;22.26;38.40;102430.66;7288654;19;153898;-52
2022/01/16 12:31:32;;;;;;;;;;;;;;;22.25;38.52;102412.91;7282690;19;153790;-53
2022/01/16 12:34:01;;;;;;;;;;;;;;;22.25;38.28;102410.09;7281465;19;153361;-53
2022/01/16 12:36:32;;;;;;;;;;;;;;;22.21;38.20;102419.38;7280514;19;152013;-53
2022/01/16 12:39:01;;;;;;;;;;;;;;;22.21;38.10;102417.41;7282986;19;152974;-52
2022/01/16 12:41:30;;;;;;;;;;;;;;;22.21;38.42;102420.25;7284224;19;152242;-52
2022/01/16 12:43:59;;;;;;;;;;;;;;;22.20;38.12;102423.31;7280700;19;152751;-53
2022/01/16 12:46:28;;;;;;;;;;;;;;;22.18;38.00;102418.81;7283283;19;152918;-53
2022/01/16 12:48:57;;;;;;;;;;;;;;;22.16;38.37;102411.78;7281366;19;153500;-52
2022/01/16 12:51:29;;;;;;;;;;;;;;;22.14;38.16;102411.22;7292110;19;151952;-53
2022/01/16 12:54:01;;;;;;;;;;;;;;;22.11;37.85;102409.84;7279907;19;153687;-53
2022/01/16 12:56:40;;;;;;;;;;;;;;;22.12;38.13;102405.03;7281314;19;152025;-53
2022/01/16 12:59:25;;;;;;;;;;;;;;;22.06;37.88;102398.56;7282191;19;153367;-52
2022/01/16 13:01:53;;;;;;;;;;;;;;;22.06;37.92;102400.53;7281854;19;153920;-53
2022/01/16 13:04:21;;;;;;;;;;;;;;;22.07;38.12;102407.88;7282163;19;152196;-53
2022/01/16 13:06:48;;;;;;;;;;;;;;;22.02;38.02;102400.28;7278509;19;153985;-53
2022/01/16 13:09:15;;;;;;;;;;;;;;;22.02;37.97;102405.06;7283211;19;153609;-54
2022/01/16 13:11:46;;;;;;;;;;;;;;;22.01;38.24;102409.00;7280648;19;151751;-53
2022/01/16 13:14:15;;;;;;;;;;;;;;;21.96;38.23;102407.03;7288282;19;152668;-53
2022/01/16 13:16:43;;;;;;;;;;;;;;;21.93;38.26;102409.56;7277923;19;151893;-53
2022/01/16 13:19:16;;;;;;;;;;;;;;;21.95;38.28;102413.78;7281698;19;152808;-52
2022/01/16 13:21:43;;;;;;;;;;;;;;;21.91;38.49;102421.06;7277721;19;152729;-53
2022/01/16 13:24:22;;;;;;;;;;;;;;;21.91;38.15;102423.88;7279589;19;152750;-53
2022/01/16 13:26:49;;;;;;;;;;;;;;;21.88;38.22;102421.63;7281239;19;152685;-53
2022/01/16 13:29:18;;;;;;;;;;;;;;;21.86;38.15;102435.13;7278178;19;153417;-53
2022/01/16 13:31:45;;;;;;;;;;;;;;;21.88;38.48;102443.31;7281121;19;152091;-53
2022/01/16 13:34:13;;;;;;;;;;;;;;;21.83;38.49;102441.34;7287764;19;153390;-52
2022/01/16 13:36:50;;;;;;;;;;;;;;;21.81;38.43;102445.53;7276629;19;152045;-53